createdAt,value
2022-11-24T04:34:08.165Z,100
2022-11-24T04:44:15.807Z,100
2022-11-24T04:49:18.200Z,100
2022-11-24T04:54:20.185Z,100
2022-11-24T04:59:22.106Z,100
2022-11-24T05:04:24.137Z,100
2022-11-24T05:14:32.328Z,100
2022-11-24T05:19:35.114Z,100
2022-11-24T05:24:36.874Z,100
2022-11-24T05:29:38.623Z,100
2022-11-24T05:34:40.402Z,100
2022-11-24T05:39:42.166Z,100
2022-11-24T05:44:43.956Z,100
2022-11-24T05:49:45.978Z,100
2022-11-24T05:54:47.858Z,100
2022-11-24T05:59:49.590Z,100
2022-11-24T06:04:51.343Z,100
2022-11-24T06:09:53.126Z,100
2022-11-24T06:14:55.081Z,100
2022-11-24T06:19:56.856Z,100
2022-11-24T06:24:58.974Z,100
2022-11-24T06:30:01.087Z,100
2022-11-24T06:35:02.873Z,100
2022-11-24T06:40:05.763Z,100
2022-11-24T06:45:09.932Z,100
2022-11-24T06:50:12.013Z,100
2022-11-24T06:55:13.880Z,100
2022-11-24T07:00:16.222Z,100
2022-11-24T07:05:18.023Z,100
2022-11-24T07:10:19.916Z,100
2022-11-24T07:15:21.928Z,100
2022-11-24T07:20:23.681Z,100
2022-11-24T07:25:25.771Z,100
2022-11-24T07:30:27.506Z,100
2022-11-24T07:35:29.976Z,100
2022-11-24T07:40:31.733Z,100
2022-11-24T07:45:33.664Z,100
2022-11-24T07:50:35.634Z,100
2022-11-24T07:55:37.475Z,100
2022-11-24T08:00:39.263Z,100
2022-11-24T08:10:46.798Z,100
2022-11-24T08:15:48.543Z,100
2022-11-24T08:20:50.298Z,100
2022-11-24T08:31:01.496Z,100
2022-11-24T08:36:04.262Z,95.04
2022-11-24T08:41:07.270Z,95.04
2022-11-24T08:46:10.530Z,95.89
2022-11-24T08:51:13.467Z,96.88
2022-11-24T08:56:15.264Z,96.88
2022-11-24T09:01:18.434Z,96.7
2022-11-24T09:06:21.543Z,96.7
2022-11-24T09:11:24.540Z,96.32
2022-11-24T09:16:27.396Z,96.32
2022-11-24T09:21:29.794Z,96.32
2022-11-24T09:26:32.932Z,96.32
2022-11-24T09:31:35.676Z,97.02
2022-11-24T09:36:37.486Z,97.02
2022-11-24T09:41:44.244Z,97.79
2022-11-24T09:46:51.307Z,97.79
2022-11-24T09:51:54.492Z,98.76
2022-11-24T09:56:59.192Z,98.76
2022-11-24T10:02:01.181Z,100
2022-11-24T10:07:08.216Z,100
2022-11-24T10:12:15.692Z,98.13
2022-11-24T10:17:23.430Z,98.12
2022-11-24T10:27:35.024Z,100
2022-11-24T10:32:40.160Z,100
2022-11-24T10:37:45.344Z,100
2022-11-24T10:42:47.065Z,100
2022-11-24T10:47:49.042Z,100
2022-11-24T10:52:54.704Z,100
2022-11-24T11:03:11.446Z,100
2022-11-24T11:08:18.329Z,100
2022-11-24T11:13:21.061Z,100
2022-11-24T11:18:26.552Z,98.21
2022-11-24T11:23:29.792Z,95.25
2022-11-24T11:28:31.602Z,95.25
2022-11-24T11:38:40.066Z,93.57
2022-11-24T11:43:42.918Z,93.07
2022-11-24T11:48:45.026Z,93.07
2022-11-24T11:53:51.039Z,94.25
2022-11-24T12:04:12.521Z,93.7
2022-11-24T12:14:27.214Z,94.08
2022-11-24T12:35:00.487Z,94.32
2022-11-24T12:40:04.159Z,93.35
2022-11-24T12:45:12.287Z,93.35
2022-11-24T12:50:17.018Z,94.77
2022-11-24T12:55:20.150Z,94.77
2022-11-24T13:00:22.974Z,94.56
2022-11-24T13:05:26.667Z,94.56
2022-11-24T13:20:41.753Z,96.37
2022-11-24T13:30:54.872Z,96.17
2022-11-24T13:51:23.214Z,94.96
2022-11-24T13:56:27.534Z,95.24
2022-11-24T14:01:31.398Z,95.24
2022-11-24T14:06:37.064Z,96.05
2022-11-24T14:11:39.105Z,96.05
2022-11-24T14:16:40.894Z,96.22
2022-11-24T14:21:42.755Z,96.22
2022-11-24T14:26:45.502Z,96.83
2022-11-24T14:31:51.949Z,96.83
2022-11-24T14:36:54.918Z,97.69
2022-11-24T14:41:59.665Z,97.69
2022-11-24T14:47:02.205Z,98.65
2022-11-24T15:07:23.884Z,98.04
2022-11-24T15:12:27.753Z,97.16
2022-11-24T15:17:30.094Z,97.16
2022-11-24T15:22:34.222Z,98.24
2022-11-24T15:27:35.960Z,98.24
2022-11-24T15:37:45.875Z,97.53
2022-11-24T15:42:49.920Z,97.06
2022-11-24T15:47:52.108Z,97.06
2022-11-24T15:52:56.136Z,99.19
2022-11-24T15:57:57.928Z,99.19
2022-11-24T16:08:06.026Z,99.63
2022-11-24T16:13:07.904Z,99.75
2022-11-24T16:18:09.684Z,99.75
2022-11-24T16:23:12.202Z,100
2022-11-24T16:28:15.228Z,100
2022-11-24T16:33:17.293Z,98.96
2022-11-24T16:38:19.387Z,100
2022-11-24T16:43:21.411Z,100
2022-11-24T16:48:23.679Z,100
2022-11-24T16:53:25.535Z,100
2022-11-24T16:58:28.429Z,98.25
2022-11-24T17:03:30.939Z,98.25
2022-11-24T17:08:34.070Z,100
2022-11-24T17:13:36.479Z,100
2022-11-24T17:18:39.760Z,99.57
2022-11-24T17:23:42.293Z,99.57
2022-11-24T17:28:44.598Z,100
2022-11-24T17:33:47.629Z,100
2022-11-24T17:38:49.863Z,100
2022-11-24T17:43:56.278Z,100
2022-11-24T17:48:59.141Z,99.92
2022-11-24T17:59:07.814Z,100
2022-11-24T18:04:11.752Z,100
2022-11-24T18:09:14.961Z,100
2022-11-24T18:14:17.453Z,100
2022-11-24T18:19:20.115Z,100
2022-11-24T18:24:24.979Z,100
2022-11-24T18:29:27.554Z,100
2022-11-24T18:34:30.301Z,99.87
2022-11-24T18:39:36.437Z,99.87
2022-11-24T18:44:41.143Z,100
2022-11-24T18:49:44.219Z,100
2022-11-24T18:54:48.232Z,100
2022-11-24T18:59:52.313Z,100
2022-11-24T19:04:55.852Z,100
2022-11-24T19:09:59.105Z,100
2022-11-24T19:15:03.251Z,100
2022-11-24T19:20:08.270Z,100
2022-11-24T19:25:11.258Z,100
2022-11-24T19:30:14.893Z,100
2022-11-24T19:35:17.359Z,100
2022-11-24T19:40:21.230Z,100
2022-11-24T19:45:25.382Z,100
2022-11-24T19:50:29.870Z,100
2022-11-24T19:55:33.144Z,100
2022-11-24T20:00:37.119Z,100
2022-11-24T20:05:40.953Z,100
2022-11-24T20:10:44.086Z,100
2022-11-24T20:15:47.124Z,100
2022-11-24T20:20:50.033Z,100
2022-11-24T20:25:53.721Z,100
2022-11-24T20:31:00.141Z,100
2022-11-24T20:36:04.667Z,100
2022-11-24T20:41:09.879Z,100
2022-11-24T20:46:14.517Z,100
2022-11-24T20:51:20.309Z,100
2022-11-24T20:56:24.758Z,100
2022-11-24T21:01:28.215Z,100
2022-11-24T21:06:31.770Z,100
2022-11-24T21:11:34.976Z,100
2022-11-24T21:16:38.720Z,100
2022-11-24T21:21:41.307Z,100
2022-11-24T21:26:44.004Z,100
2022-11-24T21:31:46.551Z,100
2022-11-24T21:36:49.034Z,100
2022-11-24T21:41:50.854Z,100
2022-11-24T21:46:56.438Z,100
2022-11-24T21:51:58.241Z,100
2022-11-24T21:57:00.028Z,100
2022-11-24T22:02:01.881Z,100
2022-11-24T22:07:03.822Z,100
2022-11-24T22:12:05.788Z,100
2022-11-24T22:17:07.623Z,100
2022-11-24T22:22:09.504Z,100
2022-11-24T22:27:11.283Z,100
2022-11-24T22:32:13.058Z,100
2022-11-24T22:37:14.760Z,100
2022-11-24T22:42:16.552Z,100
